sensor_id;sensor_type;location;lat;lon;timestamp;P1;durP1;ratioP1;P2;durP2;ratioP2
18568;SDS011;14780;48.316;-1.050;2023-02-01T00:01:07;230.05;;;120.53;;
18568;SDS011;14780;48.316;-1.050;2023-02-01T00:03:52;210.98;;;113.75;;
18568;SDS011;14780;48.316;-1.050;2023-02-01T00:06:37;198.23;;;110.43;;
18568;SDS011;14780;48.316;-1.050;2023-02-01T00:09:22;195.68;;;107.10;;
18568;SDS011;14780;48.316;-1.050;2023-02-01T00:12:07;189.10;;;101.25;;
18568;SDS011;14780;48.316;-1.050;2023-02-01T00:14:52;177.90;;;96.00;;
18568;SDS011;14780;48.316;-1.050;2023-02-01T00:17:36;162.85;;;92.47;;
18568;SDS011;14780;48.316;-1.050;2023-02-01T00:20:21;175.40;;;93.53;;
18568;SDS011;14780;48.316;-1.050;2023-02-01T00:23:06;159.27;;;84.32;;
18568;SDS011;14780;48.316;-1.050;2023-02-01T00:25:52;148.93;;;80.25;;
18568;SDS011;14780;48.316;-1.050;2023-02-01T00:28:37;139.13;;;77.53;;
18568;SDS011;14780;48.316;-1.050;2023-02-01T00:31:21;134.23;;;72.38;;
18568;SDS011;14780;48.316;-1.050;2023-02-01T00:34:06;128.45;;;68.80;;
18568;SDS011;14780;48.316;-1.050;2023-02-01T00:36:52;127.28;;;65.65;;
18568;SDS011;14780;48.316;-1.050;2023-02-01T00:39:37;120.22;;;64.10;;
18568;SDS011;14780;48.316;-1.050;2023-02-01T00:42:22;111.78;;;58.95;;
18568;SDS011;14780;48.316;-1.050;2023-02-01T00:45:07;108.80;;;57.20;;
18568;SDS011;14780;48.316;-1.050;2023-02-01T00:47:52;106.25;;;55.63;;
18568;SDS011;14780;48.316;-1.050;2023-02-01T00:50:41;98.40;;;51.22;;
18568;SDS011;14780;48.316;-1.050;2023-02-01T00:53:26;93.45;;;47.47;;
18568;SDS011;14780;48.316;-1.050;2023-02-01T00:56:11;91.78;;;46.97;;
18568;SDS011;14780;48.316;-1.050;2023-02-01T00:58:57;82.10;;;42.90;;
18568;SDS011;14780;48.316;-1.050;2023-02-01T01:01:41;82.28;;;42.70;;
18568;SDS011;14780;48.316;-1.050;2023-02-01T01:04:26;74.30;;;38.70;;
18568;SDS011;14780;48.316;-1.050;2023-02-01T01:07:11;71.00;;;37.80;;
18568;SDS011;14780;48.316;-1.050;2023-02-01T01:09:56;74.50;;;35.92;;
18568;SDS011;14780;48.316;-1.050;2023-02-01T01:12:41;63.03;;;34.42;;
18568;SDS011;14780;48.316;-1.050;2023-02-01T01:15:26;65.60;;;31.67;;
18568;SDS011;14780;48.316;-1.050;2023-02-01T01:18:10;65.07;;;31.67;;
18568;SDS011;14780;48.316;-1.050;2023-02-01T01:20:55;58.95;;;30.23;;
18568;SDS011;14780;48.316;-1.050;2023-02-01T01:23:40;56.72;;;29.13;;
18568;SDS011;14780;48.316;-1.050;2023-02-01T01:26:26;57.55;;;28.10;;
18568;SDS011;14780;48.316;-1.050;2023-02-01T01:29:12;50.75;;;26.95;;
18568;SDS011;14780;48.316;-1.050;2023-02-01T01:31:57;50.00;;;25.83;;
18568;SDS011;14780;48.316;-1.050;2023-02-01T01:34:42;49.58;;;24.48;;
18568;SDS011;14780;48.316;-1.050;2023-02-01T01:37:26;46.28;;;23.75;;
18568;SDS011;14780;48.316;-1.050;2023-02-01T01:40:11;46.58;;;23.02;;
18568;SDS011;14780;48.316;-1.050;2023-02-01T01:42:56;43.20;;;21.20;;
18568;SDS011;14780;48.316;-1.050;2023-02-01T01:45:42;40.35;;;19.60;;
18568;SDS011;14780;48.316;-1.050;2023-02-01T01:48:27;39.40;;;20.20;;
18568;SDS011;14780;48.316;-1.050;2023-02-01T01:51:14;37.63;;;18.02;;
18568;SDS011;14780;48.316;-1.050;2023-02-01T01:54:05;35.58;;;17.98;;
18568;SDS011;14780;48.316;-1.050;2023-02-01T01:57:14;30.20;;;16.23;;
18568;SDS011;14780;48.316;-1.050;2023-02-01T02:00:05;31.50;;;16.33;;
18568;SDS011;14780;48.316;-1.050;2023-02-01T02:03:09;30.67;;;15.00;;
18568;SDS011;14780;48.316;-1.050;2023-02-01T02:06:17;26.55;;;14.73;;
18568;SDS011;14780;48.316;-1.050;2023-02-01T02:09:14;27.63;;;14.50;;
18568;SDS011;14780;48.316;-1.050;2023-02-01T02:11:59;25.10;;;12.75;;
18568;SDS011;14780;48.316;-1.050;2023-02-01T02:14:44;28.48;;;13.38;;
18568;SDS011;14780;48.316;-1.050;2023-02-01T02:21:14;27.23;;;12.82;;
18568;SDS011;14780;48.316;-1.050;2023-02-01T02:27:30;22.38;;;11.55;;
18568;SDS011;14780;48.316;-1.050;2023-02-01T02:39:27;17.75;;;9.40;;
18568;SDS011;14780;48.316;-1.050;2023-02-01T02:42:23;17.95;;;9.35;;
18568;SDS011;14780;48.316;-1.050;2023-02-01T02:45:50;17.17;;;8.63;;
18568;SDS011;14780;48.316;-1.050;2023-02-01T02:51:59;13.98;;;7.85;;
18568;SDS011;14780;48.316;-1.050;2023-02-01T02:55:15;14.40;;;7.45;;
18568;SDS011;14780;48.316;-1.050;2023-02-01T02:58:00;15.05;;;7.13;;
18568;SDS011;14780;48.316;-1.050;2023-02-01T03:01:07;15.05;;;7.07;;
18568;SDS011;14780;48.316;-1.050;2023-02-01T03:04:11;12.35;;;7.00;;
18568;SDS011;14780;48.316;-1.050;2023-02-01T03:13:52;12.98;;;6.13;;
18568;SDS011;14780;48.316;-1.050;2023-02-01T03:19:36;11.50;;;6.00;;
18568;SDS011;14780;48.316;-1.050;2023-02-01T03:22:27;10.30;;;5.97;;
18568;SDS011;14780;48.316;-1.050;2023-02-01T03:25:17;12.15;;;5.28;;
18568;SDS011;14780;48.316;-1.050;2023-02-01T03:28:09;10.57;;;5.75;;
18568;SDS011;14780;48.316;-1.050;2023-02-01T03:30:54;9.90;;;5.15;;
18568;SDS011;14780;48.316;-1.050;2023-02-01T03:33:40;10.52;;;5.35;;
18568;SDS011;14780;48.316;-1.050;2023-02-01T03:36:26;11.60;;;5.32;;
18568;SDS011;14780;48.316;-1.050;2023-02-01T03:42:04;8.95;;;5.10;;
18568;SDS011;14780;48.316;-1.050;2023-02-01T03:45:15;8.27;;;4.78;;
18568;SDS011;14780;48.316;-1.050;2023-02-01T03:48:07;8.73;;;4.38;;
18568;SDS011;14780;48.316;-1.050;2023-02-01T03:50:53;10.02;;;4.97;;
18568;SDS011;14780;48.316;-1.050;2023-02-01T03:53:43;9.60;;;4.55;;
18568;SDS011;14780;48.316;-1.050;2023-02-01T03:56:30;11.13;;;4.60;;
18568;SDS011;14780;48.316;-1.050;2023-02-01T03:59:19;8.15;;;3.95;;
18568;SDS011;14780;48.316;-1.050;2023-02-01T04:02:05;7.78;;;4.20;;
18568;SDS011;14780;48.316;-1.050;2023-02-01T04:04:50;7.43;;;3.92;;
18568;SDS011;14780;48.316;-1.050;2023-02-01T04:07:34;9.30;;;4.15;;
18568;SDS011;14780;48.316;-1.050;2023-02-01T04:10:19;7.72;;;4.05;;
18568;SDS011;14780;48.316;-1.050;2023-02-01T04:13:04;8.25;;;4.05;;
18568;SDS011;14780;48.316;-1.050;2023-02-01T04:15:49;8.60;;;3.95;;
18568;SDS011;14780;48.316;-1.050;2023-02-01T04:18:33;8.88;;;3.95;;
18568;SDS011;14780;48.316;-1.050;2023-02-01T04:21:19;6.45;;;3.65;;
18568;SDS011;14780;48.316;-1.050;2023-02-01T04:24:03;7.05;;;3.60;;
18568;SDS011;14780;48.316;-1.050;2023-02-01T04:26:49;6.22;;;3.47;;
18568;SDS011;14780;48.316;-1.050;2023-02-01T04:29:34;7.43;;;3.67;;
18568;SDS011;14780;48.316;-1.050;2023-02-01T04:32:19;5.57;;;3.35;;
18568;SDS011;14780;48.316;-1.050;2023-02-01T04:35:04;7.13;;;3.33;;
18568;SDS011;14780;48.316;-1.050;2023-02-01T04:37:49;6.55;;;3.78;;
18568;SDS011;14780;48.316;-1.050;2023-02-01T04:40:34;7.30;;;3.35;;
18568;SDS011;14780;48.316;-1.050;2023-02-01T04:43:20;6.75;;;3.13;;
18568;SDS011;14780;48.316;-1.050;2023-02-01T04:46:05;5.32;;;3.13;;
18568;SDS011;14780;48.316;-1.050;2023-02-01T04:48:49;6.13;;;3.50;;
18568;SDS011;14780;48.316;-1.050;2023-02-01T04:51:34;5.35;;;3.00;;
18568;SDS011;14780;48.316;-1.050;2023-02-01T04:54:19;5.18;;;3.05;;
18568;SDS011;14780;48.316;-1.050;2023-02-01T04:57:04;6.18;;;2.90;;
18568;SDS011;14780;48.316;-1.050;2023-02-01T04:59:49;6.03;;;3.33;;
18568;SDS011;14780;48.316;-1.050;2023-02-01T05:02:34;5.82;;;3.10;;
18568;SDS011;14780;48.316;-1.050;2023-02-01T05:05:19;5.82;;;2.97;;
18568;SDS011;14780;48.316;-1.050;2023-02-01T05:08:04;5.93;;;2.85;;
18568;SDS011;14780;48.316;-1.050;2023-02-01T05:10:48;6.20;;;3.03;;
18568;SDS011;14780;48.316;-1.050;2023-02-01T05:13:33;4.43;;;2.90;;
18568;SDS011;14780;48.316;-1.050;2023-02-01T05:16:33;6.47;;;2.90;;
18568;SDS011;14780;48.316;-1.050;2023-02-01T05:19:18;5.72;;;2.75;;
18568;SDS011;14780;48.316;-1.050;2023-02-01T05:22:02;4.82;;;2.47;;
18568;SDS011;14780;48.316;-1.050;2023-02-01T05:24:47;5.15;;;2.70;;
18568;SDS011;14780;48.316;-1.050;2023-02-01T05:27:32;8.40;;;2.88;;
18568;SDS011;14780;48.316;-1.050;2023-02-01T05:30:17;4.57;;;2.50;;
18568;SDS011;14780;48.316;-1.050;2023-02-01T05:33:02;6.03;;;2.85;;
18568;SDS011;14780;48.316;-1.050;2023-02-01T05:35:47;5.55;;;2.50;;
18568;SDS011;14780;48.316;-1.050;2023-02-01T05:38:32;5.43;;;2.38;;
18568;SDS011;14780;48.316;-1.050;2023-02-01T05:41:17;5.00;;;2.28;;
18568;SDS011;14780;48.316;-1.050;2023-02-01T05:44:02;4.90;;;2.72;;
18568;SDS011;14780;48.316;-1.050;2023-02-01T05:46:46;5.78;;;2.90;;
18568;SDS011;14780;48.316;-1.050;2023-02-01T05:49:31;5.07;;;2.40;;
18568;SDS011;14780;48.316;-1.050;2023-02-01T05:52:16;5.13;;;2.55;;
18568;SDS011;14780;48.316;-1.050;2023-02-01T05:55:04;4.85;;;2.55;;
18568;SDS011;14780;48.316;-1.050;2023-02-01T05:57:48;5.95;;;2.67;;
18568;SDS011;14780;48.316;-1.050;2023-02-01T06:00:33;5.80;;;2.70;;
18568;SDS011;14780;48.316;-1.050;2023-02-01T06:03:18;4.72;;;2.95;;
18568;SDS011;14780;48.316;-1.050;2023-02-01T06:06:02;5.32;;;2.67;;
18568;SDS011;14780;48.316;-1.050;2023-02-01T06:08:47;3.88;;;2.35;;
18568;SDS011;14780;48.316;-1.050;2023-02-01T06:11:32;3.92;;;2.38;;
18568;SDS011;14780;48.316;-1.050;2023-02-01T06:14:17;5.30;;;2.75;;
18568;SDS011;14780;48.316;-1.050;2023-02-01T06:17:01;4.68;;;2.67;;
18568;SDS011;14780;48.316;-1.050;2023-02-01T06:19:46;4.68;;;2.55;;
18568;SDS011;14780;48.316;-1.050;2023-02-01T06:22:31;5.57;;;2.35;;
18568;SDS011;14780;48.316;-1.050;2023-02-01T06:25:17;4.38;;;2.25;;
18568;SDS011;14780;48.316;-1.050;2023-02-01T06:28:02;5.57;;;2.75;;
18568;SDS011;14780;48.316;-1.050;2023-02-01T06:30:49;4.57;;;2.63;;
18568;SDS011;14780;48.316;-1.050;2023-02-01T06:33:34;5.10;;;2.88;;
18568;SDS011;14780;48.316;-1.050;2023-02-01T06:36:20;5.50;;;2.60;;
18568;SDS011;14780;48.316;-1.050;2023-02-01T06:39:05;4.68;;;2.70;;
18568;SDS011;14780;48.316;-1.050;2023-02-01T06:41:50;5.43;;;2.75;;
18568;SDS011;14780;48.316;-1.050;2023-02-01T06:44:35;5.20;;;2.60;;
18568;SDS011;14780;48.316;-1.050;2023-02-01T06:47:19;5.53;;;2.60;;
18568;SDS011;14780;48.316;-1.050;2023-02-01T06:50:04;4.80;;;2.70;;
18568;SDS011;14780;48.316;-1.050;2023-02-01T06:52:49;5.40;;;2.58;;
18568;SDS011;14780;48.316;-1.050;2023-02-01T06:55:33;5.82;;;2.53;;
18568;SDS011;14780;48.316;-1.050;2023-02-01T06:58:19;4.38;;;2.35;;
18568;SDS011;14780;48.316;-1.050;2023-02-01T07:01:04;4.70;;;2.72;;
18568;SDS011;14780;48.316;-1.050;2023-02-01T07:03:50;5.13;;;2.60;;
18568;SDS011;14780;48.316;-1.050;2023-02-01T07:06:35;4.90;;;2.60;;
18568;SDS011;14780;48.316;-1.050;2023-02-01T07:09:19;5.72;;;2.28;;
18568;SDS011;14780;48.316;-1.050;2023-02-01T07:12:04;5.80;;;2.88;;
18568;SDS011;14780;48.316;-1.050;2023-02-01T07:14:49;4.72;;;2.22;;
18568;SDS011;14780;48.316;-1.050;2023-02-01T07:17:33;5.53;;;2.55;;
18568;SDS011;14780;48.316;-1.050;2023-02-01T07:20:18;6.38;;;2.90;;
18568;SDS011;14780;48.316;-1.050;2023-02-01T07:23:02;5.68;;;2.55;;
18568;SDS011;14780;48.316;-1.050;2023-02-01T07:25:47;6.68;;;2.67;;
18568;SDS011;14780;48.316;-1.050;2023-02-01T07:28:32;5.60;;;2.50;;
18568;SDS011;14780;48.316;-1.050;2023-02-01T07:31:19;5.70;;;2.50;;
18568;SDS011;14780;48.316;-1.050;2023-02-01T07:34:05;5.22;;;2.47;;
18568;SDS011;14780;48.316;-1.050;2023-02-01T07:36:49;6.25;;;2.63;;
18568;SDS011;14780;48.316;-1.050;2023-02-01T07:39:34;4.78;;;2.53;;
18568;SDS011;14780;48.316;-1.050;2023-02-01T07:42:19;5.60;;;2.60;;
18568;SDS011;14780;48.316;-1.050;2023-02-01T07:45:03;5.72;;;2.80;;
18568;SDS011;14780;48.316;-1.050;2023-02-01T07:47:51;5.57;;;2.60;;
18568;SDS011;14780;48.316;-1.050;2023-02-01T07:50:37;6.35;;;2.78;;
18568;SDS011;14780;48.316;-1.050;2023-02-01T07:53:22;5.35;;;2.53;;
18568;SDS011;14780;48.316;-1.050;2023-02-01T07:56:14;5.75;;;2.55;;
18568;SDS011;14780;48.316;-1.050;2023-02-01T07:59:01;3.95;;;2.53;;
18568;SDS011;14780;48.316;-1.050;2023-02-01T08:01:46;5.05;;;2.80;;
18568;SDS011;14780;48.316;-1.050;2023-02-01T08:04:30;6.40;;;3.15;;
18568;SDS011;14780;48.316;-1.050;2023-02-01T08:07:15;5.47;;;2.55;;
18568;SDS011;14780;48.316;-1.050;2023-02-01T08:10:00;5.25;;;2.42;;
18568;SDS011;14780;48.316;-1.050;2023-02-01T08:12:45;4.97;;;2.75;;
18568;SDS011;14780;48.316;-1.050;2023-02-01T08:15:34;5.22;;;2.45;;
18568;SDS011;14780;48.316;-1.050;2023-02-01T08:18:20;6.07;;;3.03;;
18568;SDS011;14780;48.316;-1.050;2023-02-01T08:21:09;6.68;;;2.83;;
18568;SDS011;14780;48.316;-1.050;2023-02-01T08:23:56;6.22;;;2.90;;
18568;SDS011;14780;48.316;-1.050;2023-02-01T08:26:40;6.53;;;2.83;;
18568;SDS011;14780;48.316;-1.050;2023-02-01T08:29:25;5.85;;;2.50;;
18568;SDS011;14780;48.316;-1.050;2023-02-01T08:32:10;5.15;;;2.55;;
18568;SDS011;14780;48.316;-1.050;2023-02-01T08:34:54;5.07;;;2.78;;
18568;SDS011;14780;48.316;-1.050;2023-02-01T08:37:39;9.57;;;2.85;;
18568;SDS011;14780;48.316;-1.050;2023-02-01T08:40:24;9.18;;;2.90;;
18568;SDS011;14780;48.316;-1.050;2023-02-01T08:43:08;8.32;;;3.22;;
18568;SDS011;14780;48.316;-1.050;2023-02-01T08:45:53;7.00;;;3.28;;
18568;SDS011;14780;48.316;-1.050;2023-02-01T08:48:39;12.80;;;4.38;;
18568;SDS011;14780;48.316;-1.050;2023-02-01T08:51:24;7.95;;;3.13;;
18568;SDS011;14780;48.316;-1.050;2023-02-01T08:54:09;6.20;;;2.83;;
18568;SDS011;14780;48.316;-1.050;2023-02-01T08:56:53;10.65;;;3.22;;
18568;SDS011;14780;48.316;-1.050;2023-02-01T08:59:38;7.32;;;3.30;;
18568;SDS011;14780;48.316;-1.050;2023-02-01T09:02:23;6.30;;;3.30;;
18568;SDS011;14780;48.316;-1.050;2023-02-01T09:05:08;7.40;;;3.30;;
18568;SDS011;14780;48.316;-1.050;2023-02-01T09:07:54;8.27;;;3.83;;
18568;SDS011;14780;48.316;-1.050;2023-02-01T09:10:38;8.68;;;3.75;;
18568;SDS011;14780;48.316;-1.050;2023-02-01T09:13:24;7.43;;;2.95;;
18568;SDS011;14780;48.316;-1.050;2023-02-01T09:16:10;9.73;;;3.80;;
18568;SDS011;14780;48.316;-1.050;2023-02-01T09:18:55;7.72;;;3.63;;
18568;SDS011;14780;48.316;-1.050;2023-02-01T09:21:39;8.57;;;3.63;;
18568;SDS011;14780;48.316;-1.050;2023-02-01T09:24:24;7.45;;;3.67;;
18568;SDS011;14780;48.316;-1.050;2023-02-01T09:27:08;8.45;;;3.75;;
18568;SDS011;14780;48.316;-1.050;2023-02-01T09:29:53;9.88;;;3.65;;
18568;SDS011;14780;48.316;-1.050;2023-02-01T09:32:38;8.55;;;3.30;;
18568;SDS011;14780;48.316;-1.050;2023-02-01T09:35:22;8.32;;;3.33;;
18568;SDS011;14780;48.316;-1.050;2023-02-01T09:38:09;8.30;;;3.17;;
18568;SDS011;14780;48.316;-1.050;2023-02-01T09:40:54;10.40;;;3.33;;
18568;SDS011;14780;48.316;-1.050;2023-02-01T09:46:36;8.77;;;3.15;;
18568;SDS011;14780;48.316;-1.050;2023-02-01T09:49:29;7.88;;;3.72;;
18568;SDS011;14780;48.316;-1.050;2023-02-01T09:52:16;7.22;;;3.10;;
18568;SDS011;14780;48.316;-1.050;2023-02-01T09:55:11;6.82;;;3.10;;
18568;SDS011;14780;48.316;-1.050;2023-02-01T09:58:02;11.32;;;3.67;;
18568;SDS011;14780;48.316;-1.050;2023-02-01T10:00:52;6.07;;;3.17;;
18568;SDS011;14780;48.316;-1.050;2023-02-01T10:03:42;9.45;;;3.63;;
18568;SDS011;14780;48.316;-1.050;2023-02-01T10:18:35;7.32;;;3.20;;
18568;SDS011;14780;48.316;-1.050;2023-02-01T10:21:58;10.35;;;3.00;;
18568;SDS011;14780;48.316;-1.050;2023-02-01T10:25:08;10.75;;;3.33;;
18568;SDS011;14780;48.316;-1.050;2023-02-01T10:28:20;8.75;;;3.38;;
18568;SDS011;14780;48.316;-1.050;2023-02-01T10:31:08;7.70;;;3.08;;
18568;SDS011;14780;48.316;-1.050;2023-02-01T10:33:57;8.30;;;3.33;;
18568;SDS011;14780;48.316;-1.050;2023-02-01T10:36:52;7.63;;;3.13;;
18568;SDS011;14780;48.316;-1.050;2023-02-01T10:39:40;7.57;;;3.10;;
18568;SDS011;14780;48.316;-1.050;2023-02-01T10:42:26;6.38;;;3.22;;
18568;SDS011;14780;48.316;-1.050;2023-02-01T10:45:13;9.65;;;3.20;;
18568;SDS011;14780;48.316;-1.050;2023-02-01T10:48:09;8.35;;;3.10;;
18568;SDS011;14780;48.316;-1.050;2023-02-01T10:51:28;6.93;;;3.03;;
18568;SDS011;14780;48.316;-1.050;2023-02-01T10:54:43;9.93;;;3.60;;
18568;SDS011;14780;48.316;-1.050;2023-02-01T10:57:28;8.77;;;3.08;;
18568;SDS011;14780;48.316;-1.050;2023-02-01T11:00:18;11.27;;;3.60;;
18568;SDS011;14780;48.316;-1.050;2023-02-01T11:03:19;8.25;;;3.10;;
18568;SDS011;14780;48.316;-1.050;2023-02-01T11:09:27;6.65;;;3.17;;
18568;SDS011;14780;48.316;-1.050;2023-02-01T11:12:31;10.02;;;3.55;;
18568;SDS011;14780;48.316;-1.050;2023-02-01T11:15:22;7.63;;;3.38;;
18568;SDS011;14780;48.316;-1.050;2023-02-01T11:18:14;7.80;;;3.25;;
18568;SDS011;14780;48.316;-1.050;2023-02-01T11:21:01;8.77;;;3.47;;
18568;SDS011;14780;48.316;-1.050;2023-02-01T11:23:47;7.82;;;2.83;;
18568;SDS011;14780;48.316;-1.050;2023-02-01T11:26:32;6.78;;;3.10;;
18568;SDS011;14780;48.316;-1.050;2023-02-01T11:29:23;7.60;;;3.15;;
18568;SDS011;14780;48.316;-1.050;2023-02-01T11:32:13;7.28;;;2.85;;
18568;SDS011;14780;48.316;-1.050;2023-02-01T11:35:05;5.53;;;2.83;;
18568;SDS011;14780;48.316;-1.050;2023-02-01T11:37:55;8.48;;;3.40;;
18568;SDS011;14780;48.316;-1.050;2023-02-01T11:40:43;6.82;;;3.20;;
18568;SDS011;14780;48.316;-1.050;2023-02-01T11:43:28;5.85;;;2.92;;
18568;SDS011;14780;48.316;-1.050;2023-02-01T11:46:16;7.18;;;3.17;;
18568;SDS011;14780;48.316;-1.050;2023-02-01T11:49:25;6.72;;;2.90;;
18568;SDS011;14780;48.316;-1.050;2023-02-01T11:52:18;7.35;;;3.35;;
18568;SDS011;14780;48.316;-1.050;2023-02-01T12:01:43;7.00;;;3.30;;
18568;SDS011;14780;48.316;-1.050;2023-02-01T12:05:08;9.75;;;3.45;;
18568;SDS011;14780;48.316;-1.050;2023-02-01T12:08:05;8.18;;;3.10;;
18568;SDS011;14780;48.316;-1.050;2023-02-01T12:14:05;5.97;;;2.75;;
18568;SDS011;14780;48.316;-1.050;2023-02-01T12:26:09;6.53;;;2.88;;
18568;SDS011;14780;48.316;-1.050;2023-02-01T12:50:45;7.78;;;3.60;;
18568;SDS011;14780;48.316;-1.050;2023-02-01T12:53:46;10.93;;;3.57;;
18568;SDS011;14780;48.316;-1.050;2023-02-01T12:56:50;9.80;;;3.60;;
18568;SDS011;14780;48.316;-1.050;2023-02-01T12:59:38;8.82;;;3.28;;
18568;SDS011;14780;48.316;-1.050;2023-02-01T13:02:36;9.52;;;3.95;;
18568;SDS011;14780;48.316;-1.050;2023-02-01T13:15:23;8.40;;;3.65;;
18568;SDS011;14780;48.316;-1.050;2023-02-01T13:18:17;7.25;;;3.03;;
18568;SDS011;14780;48.316;-1.050;2023-02-01T13:21:05;6.93;;;3.25;;
18568;SDS011;14780;48.316;-1.050;2023-02-01T13:23:52;7.15;;;3.13;;
18568;SDS011;14780;48.316;-1.050;2023-02-01T13:26:37;9.07;;;3.28;;
18568;SDS011;14780;48.316;-1.050;2023-02-01T13:29:22;7.80;;;3.17;;
18568;SDS011;14780;48.316;-1.050;2023-02-01T13:35:33;9.45;;;2.92;;
18568;SDS011;14780;48.316;-1.050;2023-02-01T13:41:28;7.53;;;3.28;;
18568;SDS011;14780;48.316;-1.050;2023-02-01T13:44:14;6.80;;;3.22;;
18568;SDS011;14780;48.316;-1.050;2023-02-01T13:53:11;6.68;;;3.03;;
18568;SDS011;14780;48.316;-1.050;2023-02-01T13:56:01;6.00;;;3.45;;
18568;SDS011;14780;48.316;-1.050;2023-02-01T13:58:53;7.47;;;3.10;;
18568;SDS011;14780;48.316;-1.050;2023-02-01T14:01:38;5.20;;;2.97;;
18568;SDS011;14780;48.316;-1.050;2023-02-01T14:07:30;8.02;;;3.20;;
18568;SDS011;14780;48.316;-1.050;2023-02-01T14:13:35;5.57;;;3.17;;
18568;SDS011;14780;48.316;-1.050;2023-02-01T14:16:20;7.20;;;3.35;;
18568;SDS011;14780;48.316;-1.050;2023-02-01T14:19:48;7.25;;;3.58;;
18568;SDS011;14780;48.316;-1.050;2023-02-01T14:25:19;6.75;;;3.03;;
18568;SDS011;14780;48.316;-1.050;2023-02-01T14:28:10;7.57;;;3.10;;
18568;SDS011;14780;48.316;-1.050;2023-02-01T14:31:14;7.55;;;3.08;;
18568;SDS011;14780;48.316;-1.050;2023-02-01T14:34:10;4.97;;;2.67;;
18568;SDS011;14780;48.316;-1.050;2023-02-01T14:37:02;5.68;;;2.88;;
18568;SDS011;14780;48.316;-1.050;2023-02-01T14:42:56;6.72;;;2.80;;
18568;SDS011;14780;48.316;-1.050;2023-02-01T14:51:16;8.55;;;3.15;;
18568;SDS011;14780;48.316;-1.050;2023-02-01T14:54:02;6.45;;;2.55;;
18568;SDS011;14780;48.316;-1.050;2023-02-01T14:56:48;7.03;;;2.80;;
18568;SDS011;14780;48.316;-1.050;2023-02-01T14:59:34;8.70;;;3.40;;
18568;SDS011;14780;48.316;-1.050;2023-02-01T15:02:21;5.95;;;3.17;;
18568;SDS011;14780;48.316;-1.050;2023-02-01T15:05:23;7.53;;;3.45;;
18568;SDS011;14780;48.316;-1.050;2023-02-01T15:08:18;10.57;;;3.70;;
18568;SDS011;14780;48.316;-1.050;2023-02-01T15:11:12;4.93;;;3.03;;
18568;SDS011;14780;48.316;-1.050;2023-02-01T15:13:59;7.80;;;3.10;;
18568;SDS011;14780;48.316;-1.050;2023-02-01T15:16:44;7.88;;;2.95;;
18568;SDS011;14780;48.316;-1.050;2023-02-01T15:19:37;7.35;;;2.90;;
18568;SDS011;14780;48.316;-1.050;2023-02-01T15:22:22;6.38;;;3.38;;
18568;SDS011;14780;48.316;-1.050;2023-02-01T15:25:18;7.00;;;2.97;;
18568;SDS011;14780;48.316;-1.050;2023-02-01T15:28:20;11.13;;;3.38;;
18568;SDS011;14780;48.316;-1.050;2023-02-01T15:31:05;5.72;;;2.63;;
18568;SDS011;14780;48.316;-1.050;2023-02-01T15:33:57;5.95;;;2.70;;
18568;SDS011;14780;48.316;-1.050;2023-02-01T15:36:42;4.05;;;2.30;;
18568;SDS011;14780;48.316;-1.050;2023-02-01T15:39:27;6.88;;;2.65;;
18568;SDS011;14780;48.316;-1.050;2023-02-01T15:42:16;6.55;;;3.10;;
18568;SDS011;14780;48.316;-1.050;2023-02-01T15:45:03;6.85;;;2.50;;
18568;SDS011;14780;48.316;-1.050;2023-02-01T15:47:48;4.63;;;2.90;;
18568;SDS011;14780;48.316;-1.050;2023-02-01T15:50:35;8.40;;;3.20;;
18568;SDS011;14780;48.316;-1.050;2023-02-01T15:53:24;5.43;;;2.70;;
18568;SDS011;14780;48.316;-1.050;2023-02-01T15:56:14;5.07;;;2.47;;
18568;SDS011;14780;48.316;-1.050;2023-02-01T15:59:01;5.22;;;2.95;;
18568;SDS011;14780;48.316;-1.050;2023-02-01T16:01:48;5.10;;;2.67;;
18568;SDS011;14780;48.316;-1.050;2023-02-01T16:04:45;6.35;;;3.33;;
18568;SDS011;14780;48.316;-1.050;2023-02-01T16:07:34;6.55;;;2.95;;
18568;SDS011;14780;48.316;-1.050;2023-02-01T16:10:26;4.25;;;2.22;;
18568;SDS011;14780;48.316;-1.050;2023-02-01T16:13:11;5.93;;;2.83;;
18568;SDS011;14780;48.316;-1.050;2023-02-01T16:15:57;9.38;;;2.83;;
18568;SDS011;14780;48.316;-1.050;2023-02-01T16:18:42;6.50;;;2.90;;
18568;SDS011;14780;48.316;-1.050;2023-02-01T16:21:28;6.25;;;2.80;;
18568;SDS011;14780;48.316;-1.050;2023-02-01T16:24:12;5.40;;;2.70;;
18568;SDS011;14780;48.316;-1.050;2023-02-01T16:26:57;6.03;;;2.85;;
18568;SDS011;14780;48.316;-1.050;2023-02-01T16:29:42;6.13;;;2.75;;
18568;SDS011;14780;48.316;-1.050;2023-02-01T16:32:26;6.95;;;2.72;;
18568;SDS011;14780;48.316;-1.050;2023-02-01T16:35:22;8.68;;;2.90;;
18568;SDS011;14780;48.316;-1.050;2023-02-01T16:38:11;6.30;;;2.90;;
18568;SDS011;14780;48.316;-1.050;2023-02-01T16:40:56;5.93;;;2.63;;
18568;SDS011;14780;48.316;-1.050;2023-02-01T16:43:42;5.15;;;2.50;;
18568;SDS011;14780;48.316;-1.050;2023-02-01T16:52:11;6.40;;;3.00;;
18568;SDS011;14780;48.316;-1.050;2023-02-01T16:55:07;9.95;;;3.08;;
18568;SDS011;14780;48.316;-1.050;2023-02-01T16:57:57;7.03;;;3.20;;
18568;SDS011;14780;48.316;-1.050;2023-02-01T17:00:42;8.00;;;2.70;;
18568;SDS011;14780;48.316;-1.050;2023-02-01T17:03:27;7.63;;;2.85;;
18568;SDS011;14780;48.316;-1.050;2023-02-01T17:06:13;6.68;;;2.90;;
18568;SDS011;14780;48.316;-1.050;2023-02-01T17:09:03;8.52;;;3.03;;
18568;SDS011;14780;48.316;-1.050;2023-02-01T17:11:49;7.15;;;3.00;;
18568;SDS011;14780;48.316;-1.050;2023-02-01T17:14:34;5.22;;;2.70;;
18568;SDS011;14780;48.316;-1.050;2023-02-01T17:17:29;7.20;;;2.83;;
18568;SDS011;14780;48.316;-1.050;2023-02-01T17:20:18;6.57;;;3.20;;
18568;SDS011;14780;48.316;-1.050;2023-02-01T17:23:05;10.98;;;2.92;;
18568;SDS011;14780;48.316;-1.050;2023-02-01T17:25:50;6.10;;;3.30;;
18568;SDS011;14780;48.316;-1.050;2023-02-01T17:28:35;7.72;;;3.30;;
18568;SDS011;14780;48.316;-1.050;2023-02-01T17:31:20;7.65;;;3.35;;
18568;SDS011;14780;48.316;-1.050;2023-02-01T17:34:05;5.47;;;2.85;;
18568;SDS011;14780;48.316;-1.050;2023-02-01T17:36:50;6.68;;;3.35;;
18568;SDS011;14780;48.316;-1.050;2023-02-01T17:39:34;6.30;;;3.10;;
18568;SDS011;14780;48.316;-1.050;2023-02-01T17:42:37;7.50;;;3.30;;
18568;SDS011;14780;48.316;-1.050;2023-02-01T17:48:23;9.17;;;3.83;;
18568;SDS011;14780;48.316;-1.050;2023-02-01T17:51:18;7.97;;;3.47;;
18568;SDS011;14780;48.316;-1.050;2023-02-01T17:54:11;7.20;;;3.45;;
18568;SDS011;14780;48.316;-1.050;2023-02-01T17:56:56;9.10;;;3.70;;
18568;SDS011;14780;48.316;-1.050;2023-02-01T17:59:46;6.30;;;3.20;;
18568;SDS011;14780;48.316;-1.050;2023-02-01T18:02:30;6.90;;;3.60;;
18568;SDS011;14780;48.316;-1.050;2023-02-01T18:08:08;8.70;;;3.72;;
18568;SDS011;14780;48.316;-1.050;2023-02-01T18:10:57;9.30;;;4.28;;
18568;SDS011;14780;48.316;-1.050;2023-02-01T18:13:43;7.25;;;3.58;;
18568;SDS011;14780;48.316;-1.050;2023-02-01T18:16:30;6.88;;;3.70;;
18568;SDS011;14780;48.316;-1.050;2023-02-01T18:19:17;8.27;;;3.30;;
18568;SDS011;14780;48.316;-1.050;2023-02-01T18:22:01;10.20;;;3.75;;
18568;SDS011;14780;48.316;-1.050;2023-02-01T18:24:48;5.20;;;3.30;;
18568;SDS011;14780;48.316;-1.050;2023-02-01T18:27:32;7.53;;;3.65;;
18568;SDS011;14780;48.316;-1.050;2023-02-01T18:30:18;8.13;;;4.00;;
18568;SDS011;14780;48.316;-1.050;2023-02-01T18:33:04;9.80;;;3.70;;
18568;SDS011;14780;48.316;-1.050;2023-02-01T18:35:49;8.07;;;3.92;;
18568;SDS011;14780;48.316;-1.050;2023-02-01T18:38:34;7.95;;;3.60;;
18568;SDS011;14780;48.316;-1.050;2023-02-01T18:41:19;10.57;;;4.32;;
18568;SDS011;14780;48.316;-1.050;2023-02-01T18:44:08;8.40;;;4.43;;
18568;SDS011;14780;48.316;-1.050;2023-02-01T18:46:58;8.13;;;4.00;;
18568;SDS011;14780;48.316;-1.050;2023-02-01T18:49:43;7.82;;;3.50;;
18568;SDS011;14780;48.316;-1.050;2023-02-01T18:52:27;8.13;;;3.53;;
18568;SDS011;14780;48.316;-1.050;2023-02-01T18:55:12;8.07;;;3.95;;